sensor_id;sensor_type;location;lat;lon;timestamp;P1;durP1;ratioP1;P2;durP2;ratioP2
32505;SDS011;18955;51.224;8.482;2022-07-09T00:02:10;6.00;;;1.67;;
32505;SDS011;18955;51.224;8.482;2022-07-09T00:04:37;3.60;;;1.70;;
32505;SDS011;18955;51.224;8.482;2022-07-09T00:07:03;6.75;;;2.20;;
32505;SDS011;18955;51.224;8.482;2022-07-09T00:09:29;3.10;;;1.80;;
32505;SDS011;18955;51.224;8.482;2022-07-09T00:11:56;3.03;;;1.33;;
32505;SDS011;18955;51.224;8.482;2022-07-09T00:14:22;5.95;;;2.03;;
32505;SDS011;18955;51.224;8.482;2022-07-09T00:16:48;3.33;;;1.42;;
32505;SDS011;18955;51.224;8.482;2022-07-09T00:19:15;4.90;;;1.30;;
32505;SDS011;18955;51.224;8.482;2022-07-09T00:21:41;5.53;;;2.03;;
32505;SDS011;18955;51.224;8.482;2022-07-09T00:24:08;4.00;;;1.67;;
32505;SDS011;18955;51.224;8.482;2022-07-09T00:26:35;6.57;;;1.85;;
32505;SDS011;18955;51.224;8.482;2022-07-09T00:29:01;4.18;;;1.50;;
32505;SDS011;18955;51.224;8.482;2022-07-09T00:31:27;3.83;;;1.60;;
32505;SDS011;18955;51.224;8.482;2022-07-09T00:33:53;5.13;;;1.77;;
32505;SDS011;18955;51.224;8.482;2022-07-09T00:36:19;4.60;;;1.67;;
32505;SDS011;18955;51.224;8.482;2022-07-09T00:38:46;4.22;;;1.40;;
32505;SDS011;18955;51.224;8.482;2022-07-09T00:41:12;3.42;;;1.70;;
32505;SDS011;18955;51.224;8.482;2022-07-09T00:43:45;1.55;;;1.33;;
32505;SDS011;18955;51.224;8.482;2022-07-09T00:46:14;5.40;;;1.98;;
32505;SDS011;18955;51.224;8.482;2022-07-09T00:48:41;2.20;;;1.48;;
32505;SDS011;18955;51.224;8.482;2022-07-09T00:51:08;2.83;;;1.20;;
32505;SDS011;18955;51.224;8.482;2022-07-09T00:53:36;5.55;;;2.03;;
32505;SDS011;18955;51.224;8.482;2022-07-09T00:56:04;5.82;;;1.80;;
32505;SDS011;18955;51.224;8.482;2022-07-09T00:58:30;4.30;;;2.15;;
32505;SDS011;18955;51.224;8.482;2022-07-09T01:00:57;4.00;;;1.80;;
32505;SDS011;18955;51.224;8.482;2022-07-09T01:03:24;4.85;;;2.00;;
32505;SDS011;18955;51.224;8.482;2022-07-09T01:05:50;7.03;;;2.13;;
32505;SDS011;18955;51.224;8.482;2022-07-09T01:08:16;5.43;;;2.60;;
32505;SDS011;18955;51.224;8.482;2022-07-09T01:10:43;4.03;;;2.10;;
32505;SDS011;18955;51.224;8.482;2022-07-09T01:13:10;4.38;;;1.60;;
32505;SDS011;18955;51.224;8.482;2022-07-09T01:15:37;2.67;;;1.77;;
32505;SDS011;18955;51.224;8.482;2022-07-09T01:18:03;4.25;;;2.03;;
32505;SDS011;18955;51.224;8.482;2022-07-09T01:20:30;4.75;;;1.95;;
32505;SDS011;18955;51.224;8.482;2022-07-09T01:22:57;5.70;;;2.10;;
32505;SDS011;18955;51.224;8.482;2022-07-09T01:25:31;6.53;;;2.80;;
32505;SDS011;18955;51.224;8.482;2022-07-09T01:28:02;5.53;;;2.97;;
32505;SDS011;18955;51.224;8.482;2022-07-09T01:30:31;4.57;;;3.17;;
32505;SDS011;18955;51.224;8.482;2022-07-09T01:32:59;10.50;;;4.45;;
32505;SDS011;18955;51.224;8.482;2022-07-09T01:37:52;6.47;;;3.28;;
32505;SDS011;18955;51.224;8.482;2022-07-09T01:40:19;9.93;;;4.72;;
32505;SDS011;18955;51.224;8.482;2022-07-09T01:42:46;11.05;;;5.05;;
32505;SDS011;18955;51.224;8.482;2022-07-09T01:45:14;8.15;;;4.93;;
32505;SDS011;18955;51.224;8.482;2022-07-09T01:47:41;10.93;;;5.30;;
32505;SDS011;18955;51.224;8.482;2022-07-09T01:52:34;9.63;;;4.88;;
32505;SDS011;18955;51.224;8.482;2022-07-09T01:55:00;9.75;;;6.60;;
32505;SDS011;18955;51.224;8.482;2022-07-09T01:57:27;8.45;;;3.70;;
32505;SDS011;18955;51.224;8.482;2022-07-09T01:59:53;14.30;;;5.68;;
32505;SDS011;18955;51.224;8.482;2022-07-09T02:02:19;11.98;;;6.47;;
32505;SDS011;18955;51.224;8.482;2022-07-09T02:04:46;12.88;;;6.68;;
32505;SDS011;18955;51.224;8.482;2022-07-09T02:07:13;12.90;;;6.65;;
32505;SDS011;18955;51.224;8.482;2022-07-09T02:09:40;10.52;;;6.50;;
32505;SDS011;18955;51.224;8.482;2022-07-09T02:12:07;14.15;;;6.18;;
32505;SDS011;18955;51.224;8.482;2022-07-09T02:14:34;15.93;;;6.30;;
32505;SDS011;18955;51.224;8.482;2022-07-09T02:17:00;6.50;;;4.95;;
32505;SDS011;18955;51.224;8.482;2022-07-09T02:19:26;9.88;;;5.35;;
32505;SDS011;18955;51.224;8.482;2022-07-09T02:21:53;7.53;;;4.60;;
32505;SDS011;18955;51.224;8.482;2022-07-09T02:24:19;7.13;;;4.05;;
32505;SDS011;18955;51.224;8.482;2022-07-09T02:26:45;6.63;;;3.10;;
32505;SDS011;18955;51.224;8.482;2022-07-09T02:29:12;8.02;;;4.22;;
32505;SDS011;18955;51.224;8.482;2022-07-09T02:31:38;10.60;;;4.32;;
32505;SDS011;18955;51.224;8.482;2022-07-09T02:34:04;5.45;;;4.05;;
32505;SDS011;18955;51.224;8.482;2022-07-09T02:36:30;7.68;;;4.45;;
32505;SDS011;18955;51.224;8.482;2022-07-09T02:38:57;4.63;;;2.67;;
32505;SDS011;18955;51.224;8.482;2022-07-09T02:41:23;9.60;;;4.15;;
32505;SDS011;18955;51.224;8.482;2022-07-09T02:43:49;9.38;;;4.55;;
32505;SDS011;18955;51.224;8.482;2022-07-09T02:46:15;5.90;;;4.20;;
32505;SDS011;18955;51.224;8.482;2022-07-09T02:48:41;4.88;;;3.25;;
32505;SDS011;18955;51.224;8.482;2022-07-09T02:51:08;7.05;;;4.82;;
32505;SDS011;18955;51.224;8.482;2022-07-09T02:53:34;11.80;;;5.63;;
32505;SDS011;18955;51.224;8.482;2022-07-09T02:56:00;9.68;;;7.13;;
32505;SDS011;18955;51.224;8.482;2022-07-09T02:58:26;16.80;;;9.20;;
32505;SDS011;18955;51.224;8.482;2022-07-09T03:00:53;14.70;;;8.07;;
32505;SDS011;18955;51.224;8.482;2022-07-09T03:03:19;14.52;;;9.07;;
32505;SDS011;18955;51.224;8.482;2022-07-09T03:05:48;15.27;;;9.20;;
32505;SDS011;18955;51.224;8.482;2022-07-09T03:08:15;17.25;;;9.95;;
32505;SDS011;18955;51.224;8.482;2022-07-09T03:10:41;20.05;;;10.63;;
32505;SDS011;18955;51.224;8.482;2022-07-09T03:13:08;10.07;;;6.28;;
32505;SDS011;18955;51.224;8.482;2022-07-09T03:15:34;13.15;;;8.75;;
32505;SDS011;18955;51.224;8.482;2022-07-09T03:18:00;9.77;;;7.03;;
32505;SDS011;18955;51.224;8.482;2022-07-09T03:20:26;10.73;;;7.07;;
32505;SDS011;18955;51.224;8.482;2022-07-09T03:22:52;16.90;;;7.57;;
32505;SDS011;18955;51.224;8.482;2022-07-09T03:27:45;10.55;;;7.38;;
32505;SDS011;18955;51.224;8.482;2022-07-09T03:30:11;11.30;;;7.57;;
32505;SDS011;18955;51.224;8.482;2022-07-09T03:32:38;13.20;;;8.75;;
32505;SDS011;18955;51.224;8.482;2022-07-09T03:35:04;10.40;;;7.50;;
32505;SDS011;18955;51.224;8.482;2022-07-09T03:37:30;11.70;;;6.55;;
32505;SDS011;18955;51.224;8.482;2022-07-09T03:39:57;12.13;;;8.13;;
32505;SDS011;18955;51.224;8.482;2022-07-09T03:42:23;8.38;;;6.93;;
32505;SDS011;18955;51.224;8.482;2022-07-09T03:44:49;15.18;;;9.55;;
32505;SDS011;18955;51.224;8.482;2022-07-09T03:47:15;13.73;;;8.93;;
32505;SDS011;18955;51.224;8.482;2022-07-09T03:49:41;14.20;;;9.23;;
32505;SDS011;18955;51.224;8.482;2022-07-09T03:52:08;13.75;;;8.23;;
32505;SDS011;18955;51.224;8.482;2022-07-09T03:54:34;13.05;;;8.93;;
32505;SDS011;18955;51.224;8.482;2022-07-09T03:57:00;17.10;;;10.85;;
32505;SDS011;18955;51.224;8.482;2022-07-09T03:59:27;20.27;;;11.85;;
32505;SDS011;18955;51.224;8.482;2022-07-09T04:01:53;14.90;;;11.88;;
32505;SDS011;18955;51.224;8.482;2022-07-09T04:04:19;23.00;;;14.82;;
32505;SDS011;18955;51.224;8.482;2022-07-09T04:06:45;25.63;;;19.35;;
32505;SDS011;18955;51.224;8.482;2022-07-09T04:09:11;24.67;;;16.48;;
32505;SDS011;18955;51.224;8.482;2022-07-09T04:11:37;26.58;;;18.98;;
32505;SDS011;18955;51.224;8.482;2022-07-09T04:14:04;28.25;;;18.50;;
32505;SDS011;18955;51.224;8.482;2022-07-09T04:16:30;24.67;;;15.98;;
32505;SDS011;18955;51.224;8.482;2022-07-09T04:18:56;31.60;;;20.98;;
32505;SDS011;18955;51.224;8.482;2022-07-09T04:21:22;33.20;;;21.27;;
32505;SDS011;18955;51.224;8.482;2022-07-09T04:23:49;18.38;;;14.48;;
32505;SDS011;18955;51.224;8.482;2022-07-09T04:28:42;32.47;;;21.45;;
32505;SDS011;18955;51.224;8.482;2022-07-09T04:31:08;30.45;;;21.48;;
32505;SDS011;18955;51.224;8.482;2022-07-09T04:33:34;33.95;;;21.45;;
32505;SDS011;18955;51.224;8.482;2022-07-09T04:36:00;22.27;;;15.38;;
32505;SDS011;18955;51.224;8.482;2022-07-09T04:38:27;29.27;;;21.92;;
32505;SDS011;18955;51.224;8.482;2022-07-09T04:40:54;29.90;;;21.02;;
32505;SDS011;18955;51.224;8.482;2022-07-09T04:43:21;33.88;;;22.00;;
32505;SDS011;18955;51.224;8.482;2022-07-09T04:45:47;33.55;;;22.98;;
32505;SDS011;18955;51.224;8.482;2022-07-09T04:48:13;31.83;;;19.25;;
32505;SDS011;18955;51.224;8.482;2022-07-09T04:50:39;34.65;;;21.58;;
32505;SDS011;18955;51.224;8.482;2022-07-09T04:53:06;37.88;;;23.67;;
32505;SDS011;18955;51.224;8.482;2022-07-09T04:55:32;35.78;;;22.23;;
32505;SDS011;18955;51.224;8.482;2022-07-09T04:57:58;31.60;;;21.30;;
32505;SDS011;18955;51.224;8.482;2022-07-09T05:00:24;26.13;;;16.83;;
32505;SDS011;18955;51.224;8.482;2022-07-09T05:02:51;32.90;;;19.63;;
32505;SDS011;18955;51.224;8.482;2022-07-09T05:05:17;33.35;;;20.20;;
32505;SDS011;18955;51.224;8.482;2022-07-09T05:07:47;30.00;;;18.83;;
32505;SDS011;18955;51.224;8.482;2022-07-09T05:10:15;31.15;;;19.67;;
32505;SDS011;18955;51.224;8.482;2022-07-09T05:12:41;29.00;;;19.58;;
32505;SDS011;18955;51.224;8.482;2022-07-09T05:15:08;30.40;;;18.77;;
32505;SDS011;18955;51.224;8.482;2022-07-09T05:17:36;33.42;;;20.48;;
32505;SDS011;18955;51.224;8.482;2022-07-09T05:20:03;23.23;;;17.85;;
32505;SDS011;18955;51.224;8.482;2022-07-09T05:22:35;27.25;;;16.85;;
32505;SDS011;18955;51.224;8.482;2022-07-09T05:25:03;24.33;;;15.65;;
32505;SDS011;18955;51.224;8.482;2022-07-09T05:27:30;24.90;;;16.33;;
32505;SDS011;18955;51.224;8.482;2022-07-09T05:32:24;23.98;;;15.40;;
32505;SDS011;18955;51.224;8.482;2022-07-09T05:34:50;14.88;;;10.93;;
32505;SDS011;18955;51.224;8.482;2022-07-09T05:37:16;23.55;;;14.02;;
32505;SDS011;18955;51.224;8.482;2022-07-09T05:39:42;14.15;;;9.65;;
32505;SDS011;18955;51.224;8.482;2022-07-09T05:42:09;19.92;;;13.88;;
32505;SDS011;18955;51.224;8.482;2022-07-09T05:44:35;19.50;;;12.00;;
32505;SDS011;18955;51.224;8.482;2022-07-09T05:47:02;21.92;;;12.00;;
32505;SDS011;18955;51.224;8.482;2022-07-09T05:49:28;17.77;;;12.63;;
32505;SDS011;18955;51.224;8.482;2022-07-09T05:51:54;15.02;;;10.65;;
32505;SDS011;18955;51.224;8.482;2022-07-09T05:54:22;17.10;;;11.70;;
32505;SDS011;18955;51.224;8.482;2022-07-09T05:56:48;15.65;;;10.98;;
32505;SDS011;18955;51.224;8.482;2022-07-09T05:59:14;19.00;;;11.45;;
32505;SDS011;18955;51.224;8.482;2022-07-09T06:01:41;24.05;;;12.77;;
32505;SDS011;18955;51.224;8.482;2022-07-09T06:04:08;18.15;;;11.15;;
32505;SDS011;18955;51.224;8.482;2022-07-09T06:09:01;21.92;;;13.23;;
32505;SDS011;18955;51.224;8.482;2022-07-09T06:11:27;28.02;;;14.10;;
32505;SDS011;18955;51.224;8.482;2022-07-09T06:13:53;35.35;;;14.70;;
32505;SDS011;18955;51.224;8.482;2022-07-09T06:16:20;24.58;;;13.70;;
32505;SDS011;18955;51.224;8.482;2022-07-09T06:18:46;23.27;;;13.93;;
32505;SDS011;18955;51.224;8.482;2022-07-09T06:21:12;25.50;;;14.63;;
32505;SDS011;18955;51.224;8.482;2022-07-09T06:23:38;21.02;;;11.48;;
32505;SDS011;18955;51.224;8.482;2022-07-09T06:26:05;21.00;;;12.23;;
32505;SDS011;18955;51.224;8.482;2022-07-09T06:28:31;17.73;;;9.57;;
32505;SDS011;18955;51.224;8.482;2022-07-09T06:30:57;22.67;;;13.30;;
32505;SDS011;18955;51.224;8.482;2022-07-09T06:33:24;20.05;;;11.13;;
32505;SDS011;18955;51.224;8.482;2022-07-09T06:35:50;27.00;;;15.20;;
32505;SDS011;18955;51.224;8.482;2022-07-09T06:38:16;20.85;;;12.52;;
32505;SDS011;18955;51.224;8.482;2022-07-09T06:40:42;24.10;;;13.70;;
32505;SDS011;18955;51.224;8.482;2022-07-09T06:43:09;19.27;;;11.73;;
32505;SDS011;18955;51.224;8.482;2022-07-09T06:45:44;17.73;;;10.52;;
32505;SDS011;18955;51.224;8.482;2022-07-09T06:48:10;16.65;;;9.38;;
32505;SDS011;18955;51.224;8.482;2022-07-09T06:50:37;8.30;;;5.53;;
32505;SDS011;18955;51.224;8.482;2022-07-09T06:53:03;11.50;;;7.40;;
32505;SDS011;18955;51.224;8.482;2022-07-09T06:55:30;10.77;;;6.28;;
32505;SDS011;18955;51.224;8.482;2022-07-09T06:57:56;10.70;;;5.68;;
32505;SDS011;18955;51.224;8.482;2022-07-09T07:00:23;7.32;;;5.15;;
32505;SDS011;18955;51.224;8.482;2022-07-09T07:02:49;6.68;;;4.53;;
32505;SDS011;18955;51.224;8.482;2022-07-09T07:05:16;7.18;;;3.28;;
32505;SDS011;18955;51.224;8.482;2022-07-09T07:07:42;4.72;;;3.03;;
32505;SDS011;18955;51.224;8.482;2022-07-09T07:10:08;3.65;;;2.25;;
32505;SDS011;18955;51.224;8.482;2022-07-09T07:12:35;5.10;;;2.97;;
32505;SDS011;18955;51.224;8.482;2022-07-09T07:15:01;6.00;;;3.63;;
32505;SDS011;18955;51.224;8.482;2022-07-09T07:17:28;4.93;;;3.03;;
32505;SDS011;18955;51.224;8.482;2022-07-09T07:19:54;4.45;;;2.47;;
32505;SDS011;18955;51.224;8.482;2022-07-09T07:22:20;5.40;;;3.03;;
32505;SDS011;18955;51.224;8.482;2022-07-09T07:24:47;5.30;;;3.33;;
32505;SDS011;18955;51.224;8.482;2022-07-09T07:27:13;5.40;;;3.50;;
32505;SDS011;18955;51.224;8.482;2022-07-09T07:29:39;4.65;;;3.40;;
32505;SDS011;18955;51.224;8.482;2022-07-09T07:32:08;6.65;;;3.85;;
32505;SDS011;18955;51.224;8.482;2022-07-09T07:34:35;5.97;;;3.95;;
32505;SDS011;18955;51.224;8.482;2022-07-09T07:37:01;6.45;;;4.22;;
32505;SDS011;18955;51.224;8.482;2022-07-09T07:39:27;7.05;;;4.22;;
32505;SDS011;18955;51.224;8.482;2022-07-09T07:41:53;6.28;;;4.25;;
32505;SDS011;18955;51.224;8.482;2022-07-09T07:44:19;7.20;;;4.47;;
32505;SDS011;18955;51.224;8.482;2022-07-09T07:46:47;8.32;;;4.35;;
32505;SDS011;18955;51.224;8.482;2022-07-09T07:49:13;5.40;;;3.75;;
32505;SDS011;18955;51.224;8.482;2022-07-09T07:51:39;7.28;;;4.35;;
32505;SDS011;18955;51.224;8.482;2022-07-09T07:54:06;8.80;;;4.03;;
32505;SDS011;18955;51.224;8.482;2022-07-09T07:56:33;7.10;;;3.95;;
32505;SDS011;18955;51.224;8.482;2022-07-09T07:59:02;6.95;;;3.50;;
32505;SDS011;18955;51.224;8.482;2022-07-09T08:01:29;7.10;;;3.28;;
32505;SDS011;18955;51.224;8.482;2022-07-09T08:03:55;4.93;;;3.70;;
32505;SDS011;18955;51.224;8.482;2022-07-09T08:06:21;3.25;;;2.42;;
32505;SDS011;18955;51.224;8.482;2022-07-09T08:08:48;6.57;;;3.88;;
32505;SDS011;18955;51.224;8.482;2022-07-09T08:11:14;4.72;;;3.30;;
32505;SDS011;18955;51.224;8.482;2022-07-09T08:13:40;4.50;;;2.85;;
32505;SDS011;18955;51.224;8.482;2022-07-09T08:16:06;5.10;;;3.40;;
32505;SDS011;18955;51.224;8.482;2022-07-09T08:18:33;6.72;;;3.85;;
32505;SDS011;18955;51.224;8.482;2022-07-09T08:20:59;7.28;;;3.75;;
32505;SDS011;18955;51.224;8.482;2022-07-09T08:23:26;6.95;;;3.53;;
32505;SDS011;18955;51.224;8.482;2022-07-09T08:25:52;5.38;;;3.10;;
32505;SDS011;18955;51.224;8.482;2022-07-09T08:28:18;4.85;;;3.38;;
32505;SDS011;18955;51.224;8.482;2022-07-09T08:30:45;4.10;;;3.10;;
32505;SDS011;18955;51.224;8.482;2022-07-09T08:33:11;4.80;;;2.88;;
32505;SDS011;18955;51.224;8.482;2022-07-09T08:35:37;2.95;;;2.65;;
32505;SDS011;18955;51.224;8.482;2022-07-09T08:38:04;6.00;;;3.03;;
32505;SDS011;18955;51.224;8.482;2022-07-09T08:40:30;4.03;;;2.47;;
32505;SDS011;18955;51.224;8.482;2022-07-09T08:45:25;3.17;;;2.10;;
32505;SDS011;18955;51.224;8.482;2022-07-09T08:47:54;2.50;;;1.95;;
32505;SDS011;18955;51.224;8.482;2022-07-09T08:50:20;3.10;;;1.83;;
32505;SDS011;18955;51.224;8.482;2022-07-09T08:52:48;2.83;;;1.80;;
32505;SDS011;18955;51.224;8.482;2022-07-09T08:55:17;3.83;;;1.50;;
32505;SDS011;18955;51.224;8.482;2022-07-09T08:57:43;4.78;;;1.92;;
32505;SDS011;18955;51.224;8.482;2022-07-09T09:00:09;4.25;;;2.03;;
32505;SDS011;18955;51.224;8.482;2022-07-09T09:02:36;2.70;;;1.88;;
32505;SDS011;18955;51.224;8.482;2022-07-09T09:05:11;2.53;;;2.22;;
32505;SDS011;18955;51.224;8.482;2022-07-09T09:07:39;2.92;;;2.20;;
32505;SDS011;18955;51.224;8.482;2022-07-09T09:10:06;6.20;;;2.50;;
32505;SDS011;18955;51.224;8.482;2022-07-09T09:12:32;4.45;;;2.08;;
32505;SDS011;18955;51.224;8.482;2022-07-09T09:14:59;3.63;;;1.45;;
32505;SDS011;18955;51.224;8.482;2022-07-09T09:17:29;2.83;;;1.98;;
32505;SDS011;18955;51.224;8.482;2022-07-09T09:22:22;3.75;;;1.95;;
32505;SDS011;18955;51.224;8.482;2022-07-09T09:24:48;3.75;;;2.40;;
32505;SDS011;18955;51.224;8.482;2022-07-09T09:27:16;3.95;;;2.20;;
32505;SDS011;18955;51.224;8.482;2022-07-09T09:29:48;3.47;;;2.17;;
32505;SDS011;18955;51.224;8.482;2022-07-09T09:32:18;4.20;;;3.03;;
32505;SDS011;18955;51.224;8.482;2022-07-09T09:34:50;6.20;;;1.88;;
32505;SDS011;18955;51.224;8.482;2022-07-09T09:37:26;3.78;;;2.10;;
32505;SDS011;18955;51.224;8.482;2022-07-09T09:39:53;4.47;;;1.70;;
32505;SDS011;18955;51.224;8.482;2022-07-09T09:42:20;5.18;;;2.00;;
32505;SDS011;18955;51.224;8.482;2022-07-09T09:44:50;2.72;;;1.73;;
32505;SDS011;18955;51.224;8.482;2022-07-09T09:47:17;3.55;;;1.85;;
32505;SDS011;18955;51.224;8.482;2022-07-09T09:49:48;5.65;;;1.70;;
32505;SDS011;18955;51.224;8.482;2022-07-09T09:52:15;5.00;;;1.60;;
32505;SDS011;18955;51.224;8.482;2022-07-09T09:54:43;1.88;;;1.60;;
32505;SDS011;18955;51.224;8.482;2022-07-09T09:57:13;3.53;;;1.70;;
32505;SDS011;18955;51.224;8.482;2022-07-09T09:59:40;2.13;;;1.63;;
32505;SDS011;18955;51.224;8.482;2022-07-09T10:02:09;1.85;;;1.20;;
32505;SDS011;18955;51.224;8.482;2022-07-09T10:04:36;3.42;;;1.77;;
32505;SDS011;18955;51.224;8.482;2022-07-09T10:07:07;8.35;;;1.25;;
32505;SDS011;18955;51.224;8.482;2022-07-09T10:09:36;1.95;;;1.35;;
32505;SDS011;18955;51.224;8.482;2022-07-09T10:12:02;1.58;;;1.30;;
32505;SDS011;18955;51.224;8.482;2022-07-09T10:14:36;2.50;;;1.08;;
32505;SDS011;18955;51.224;8.482;2022-07-09T10:17:10;1.80;;;1.23;;
32505;SDS011;18955;51.224;8.482;2022-07-09T10:22:20;1.88;;;1.67;;
32505;SDS011;18955;51.224;8.482;2022-07-09T10:24:49;2.13;;;1.30;;
32505;SDS011;18955;51.224;8.482;2022-07-09T10:27:17;2.90;;;1.25;;
32505;SDS011;18955;51.224;8.482;2022-07-09T10:29:52;2.28;;;1.50;;
32505;SDS011;18955;51.224;8.482;2022-07-09T10:32:31;5.05;;;1.63;;
32505;SDS011;18955;51.224;8.482;2022-07-09T10:34:59;4.15;;;1.20;;
32505;SDS011;18955;51.224;8.482;2022-07-09T10:37:44;3.63;;;1.40;;
32505;SDS011;18955;51.224;8.482;2022-07-09T10:40:15;1.30;;;1.15;;
32505;SDS011;18955;51.224;8.482;2022-07-09T10:42:56;1.90;;;1.08;;
32505;SDS011;18955;51.224;8.482;2022-07-09T10:45:24;1.23;;;1.10;;
32505;SDS011;18955;51.224;8.482;2022-07-09T10:47:53;5.10;;;1.35;;
32505;SDS011;18955;51.224;8.482;2022-07-09T10:50:21;1.10;;;0.98;;
32505;SDS011;18955;51.224;8.482;2022-07-09T10:52:49;2.92;;;1.05;;
32505;SDS011;18955;51.224;8.482;2022-07-09T10:55:19;3.28;;;0.90;;
32505;SDS011;18955;51.224;8.482;2022-07-09T10:57:50;1.33;;;0.90;;
32505;SDS011;18955;51.224;8.482;2022-07-09T11:00:19;3.88;;;1.23;;
32505;SDS011;18955;51.224;8.482;2022-07-09T11:02:50;0.90;;;0.90;;
32505;SDS011;18955;51.224;8.482;2022-07-09T11:05:21;1.80;;;0.90;;
32505;SDS011;18955;51.224;8.482;2022-07-09T11:07:59;1.58;;;0.98;;
32505;SDS011;18955;51.224;8.482;2022-07-09T11:10:28;1.70;;;0.90;;
32505;SDS011;18955;51.224;8.482;2022-07-09T11:12:55;0.88;;;0.80;;
32505;SDS011;18955;51.224;8.482;2022-07-09T11:15:24;1.92;;;1.00;;
32505;SDS011;18955;51.224;8.482;2022-07-09T11:20:25;1.77;;;1.02;;
32505;SDS011;18955;51.224;8.482;2022-07-09T11:22:55;1.20;;;0.90;;
32505;SDS011;18955;51.224;8.482;2022-07-09T11:25:23;3.33;;;1.25;;
32505;SDS011;18955;51.224;8.482;2022-07-09T11:27:53;4.28;;;0.93;;
32505;SDS011;18955;51.224;8.482;2022-07-09T11:30:20;1.23;;;1.00;;
32505;SDS011;18955;51.224;8.482;2022-07-09T11:32:47;6.47;;;0.90;;
32505;SDS011;18955;51.224;8.482;2022-07-09T11:37:54;2.42;;;1.48;;
32505;SDS011;18955;51.224;8.482;2022-07-09T11:40:24;3.13;;;1.30;;
32505;SDS011;18955;51.224;8.482;2022-07-09T11:42:51;2.65;;;1.27;;
32505;SDS011;18955;51.224;8.482;2022-07-09T11:45:20;4.32;;;1.30;;
32505;SDS011;18955;51.224;8.482;2022-07-09T11:47:48;3.15;;;1.05;;
32505;SDS011;18955;51.224;8.482;2022-07-09T11:50:15;3.35;;;1.20;;
32505;SDS011;18955;51.224;8.482;2022-07-09T11:52:46;2.22;;;1.30;;
32505;SDS011;18955;51.224;8.482;2022-07-09T11:55:19;1.85;;;1.10;;
32505;SDS011;18955;51.224;8.482;2022-07-09T11:57:53;1.77;;;1.42;;
32505;SDS011;18955;51.224;8.482;2022-07-09T12:00:22;1.83;;;1.10;;
32505;SDS011;18955;51.224;8.482;2022-07-09T12:02:54;1.50;;;1.10;;
32505;SDS011;18955;51.224;8.482;2022-07-09T12:07:58;1.88;;;1.20;;
32505;SDS011;18955;51.224;8.482;2022-07-09T12:10:26;3.38;;;1.42;;
32505;SDS011;18955;51.224;8.482;2022-07-09T12:13:03;3.17;;;1.60;;
32505;SDS011;18955;51.224;8.482;2022-07-09T12:15:30;2.53;;;1.38;;
32505;SDS011;18955;51.224;8.482;2022-07-09T12:17:57;4.43;;;1.60;;
32505;SDS011;18955;51.224;8.482;2022-07-09T12:20:26;2.00;;;1.40;;
32505;SDS011;18955;51.224;8.482;2022-07-09T12:22:54;2.58;;;1.80;;
32505;SDS011;18955;51.224;8.482;2022-07-09T12:25:20;4.78;;;2.03;;
32505;SDS011;18955;51.224;8.482;2022-07-09T12:27:47;3.65;;;2.00;;
32505;SDS011;18955;51.224;8.482;2022-07-09T12:30:17;4.10;;;1.67;;
32505;SDS011;18955;51.224;8.482;2022-07-09T12:32:44;2.47;;;1.90;;
32505;SDS011;18955;51.224;8.482;2022-07-09T12:35:11;3.55;;;2.00;;
32505;SDS011;18955;51.224;8.482;2022-07-09T12:40:04;3.50;;;2.33;;
32505;SDS011;18955;51.224;8.482;2022-07-09T12:42:33;3.05;;;1.77;;
32505;SDS011;18955;51.224;8.482;2022-07-09T12:47:26;6.75;;;2.00;;
32505;SDS011;18955;51.224;8.482;2022-07-09T12:49:52;3.50;;;1.80;;
32505;SDS011;18955;51.224;8.482;2022-07-09T12:52:19;4.70;;;2.15;;
32505;SDS011;18955;51.224;8.482;2022-07-09T12:54:45;2.53;;;2.05;;
32505;SDS011;18955;51.224;8.482;2022-07-09T12:57:11;3.42;;;2.00;;
32505;SDS011;18955;51.224;8.482;2022-07-09T12:59:38;6.13;;;2.30;;
32505;SDS011;18955;51.224;8.482;2022-07-09T13:02:04;4.90;;;2.35;;
32505;SDS011;18955;51.224;8.482;2022-07-09T13:04:31;3.60;;;2.00;;
32505;SDS011;18955;51.224;8.482;2022-07-09T13:06:58;5.35;;;2.20;;
32505;SDS011;18955;51.224;8.482;2022-07-09T13:09:24;3.47;;;1.98;;
32505;SDS011;18955;51.224;8.482;2022-07-09T13:11:50;4.03;;;2.08;;
32505;SDS011;18955;51.224;8.482;2022-07-09T13:14:17;5.82;;;2.03;;
32505;SDS011;18955;51.224;8.482;2022-07-09T13:16:43;6.90;;;2.08;;
32505;SDS011;18955;51.224;8.482;2022-07-09T13:21:36;5.22;;;2.13;;
32505;SDS011;18955;51.224;8.482;2022-07-09T13:24:02;4.65;;;2.22;;
32505;SDS011;18955;51.224;8.482;2022-07-09T13:26:28;5.88;;;2.13;;
32505;SDS011;18955;51.224;8.482;2022-07-09T13:28:55;4.38;;;2.15;;
32505;SDS011;18955;51.224;8.482;2022-07-09T13:31:21;4.72;;;2.20;;
32505;SDS011;18955;51.224;8.482;2022-07-09T13:33:47;9.70;;;2.63;;
32505;SDS011;18955;51.224;8.482;2022-07-09T13:36:13;4.65;;;2.47;;
32505;SDS011;18955;51.224;8.482;2022-07-09T13:38:40;19.60;;;4.20;;
32505;SDS011;18955;51.224;8.482;2022-07-09T13:41:06;4.68;;;3.13;;
32505;SDS011;18955;51.224;8.482;2022-07-09T13:43:32;9.90;;;3.28;;
32505;SDS011;18955;51.224;8.482;2022-07-09T13:45:58;6.03;;;3.10;;
32505;SDS011;18955;51.224;8.482;2022-07-09T13:48:25;6.70;;;3.20;;
32505;SDS011;18955;51.224;8.482;2022-07-09T13:50:52;5.55;;;2.95;;
32505;SDS011;18955;51.224;8.482;2022-07-09T13:53:19;4.50;;;2.67;;
32505;SDS011;18955;51.224;8.482;2022-07-09T13:55:46;6.35;;;2.45;;
32505;SDS011;18955;51.224;8.482;2022-07-09T13:58:12;3.72;;;2.28;;
32505;SDS011;18955;51.224;8.482;2022-07-09T14:00:39;4.05;;;2.22;;
32505;SDS011;18955;51.224;8.482;2022-07-09T14:03:05;4.60;;;2.53;;
32505;SDS011;18955;51.224;8.482;2022-07-09T14:05:31;5.22;;;2.60;;
32505;SDS011;18955;51.224;8.482;2022-07-09T14:07:58;4.07;;;2.50;;
32505;SDS011;18955;51.224;8.482;2022-07-09T14:10:24;5.15;;;3.38;;
32505;SDS011;18955;51.224;8.482;2022-07-09T14:12:51;4.07;;;2.22;;
32505;SDS011;18955;51.224;8.482;2022-07-09T14:15:17;4.50;;;3.15;;
32505;SDS011;18955;51.224;8.482;2022-07-09T14:17:44;6.40;;;2.67;;
32505;SDS011;18955;51.224;8.482;2022-07-09T14:20:10;5.55;;;2.80;;
32505;SDS011;18955;51.224;8.482;2022-07-09T14:22:37;2.85;;;2.65;;
32505;SDS011;18955;51.224;8.482;2022-07-09T14:25:03;5.55;;;3.33;;
32505;SDS011;18955;51.224;8.482;2022-07-09T14:27:30;4.80;;;2.97;;
32505;SDS011;18955;51.224;8.482;2022-07-09T14:29:56;3.85;;;3.10;;
32505;SDS011;18955;51.224;8.482;2022-07-09T14:32:23;7.97;;;3.70;;
32505;SDS011;18955;51.224;8.482;2022-07-09T14:37:15;6.05;;;3.22;;
32505;SDS011;18955;51.224;8.482;2022-07-09T14:39:42;6.20;;;3.15;;
32505;SDS011;18955;51.224;8.482;2022-07-09T14:42:08;4.00;;;3.40;;
32505;SDS011;18955;51.224;8.482;2022-07-09T14:44:34;4.85;;;4.30;;
32505;SDS011;18955;51.224;8.482;2022-07-09T14:47:00;4.20;;;3.03;;
32505;SDS011;18955;51.224;8.482;2022-07-09T14:49:27;4.72;;;3.03;;
32505;SDS011;18955;51.224;8.482;2022-07-09T14:51:54;3.72;;;3.20;;
32505;SDS011;18955;51.224;8.482;2022-07-09T14:54:21;4.95;;;3.45;;
32505;SDS011;18955;51.224;8.482;2022-07-09T14:56:47;3.50;;;2.92;;
32505;SDS011;18955;51.224;8.482;2022-07-09T14:59:14;2.22;;;1.90;;
32505;SDS011;18955;51.224;8.482;2022-07-09T15:01:45;4.82;;;3.20;;
32505;SDS011;18955;51.224;8.482;2022-07-09T15:04:12;4.85;;;3.10;;
32505;SDS011;18955;51.224;8.482;2022-07-09T15:09:05;9.95;;;4.43;;
32505;SDS011;18955;51.224;8.482;2022-07-09T15:11:31;6.30;;;4.10;;
32505;SDS011;18955;51.224;8.482;2022-07-09T15:13:57;8.65;;;5.30;;
32505;SDS011;18955;51.224;8.482;2022-07-09T15:16:24;7.25;;;4.57;;
32505;SDS011;18955;51.224;8.482;2022-07-09T15:18:50;8.10;;;4.65;;
32505;SDS011;18955;51.224;8.482;2022-07-09T15:21:16;6.68;;;4.00;;
32505;SDS011;18955;51.224;8.482;2022-07-09T15:23:43;6.03;;;3.95;;